Terminal Aerodrome Forecast
Issued by NWS

Home | Current Version | Previous Version | Text Only | Print | Product List | Glossary Off
Versions: 1 2 3 4 5 6 7 8 9 10 11 12 13

000
FTUS43 KIWX 252322
TAFSBN
TAF
KSBN 252322Z 2600/2624 32006KT P6SM SCT045
     FM261000 VRB03KT 4SM BR SCT200
     FM261400 10006KT P6SM BKN250=

USA.gov is the U.S. government's official web portal to all federal, state and local government web resources and services.